createdAt,value
2022-12-27T00:01:48.215Z,1.65
2022-12-27T00:04:16.688Z,2.22
2022-12-27T00:06:46.424Z,2.63
2022-12-27T00:09:14.614Z,2.42
2022-12-27T00:11:42.890Z,1.88
2022-12-27T00:14:12.644Z,3.15
2022-12-27T00:16:41.262Z,2.15
2022-12-27T00:19:09.418Z,3.67
2022-12-27T00:21:37.772Z,4.47
2022-12-27T00:24:08.013Z,4.93
2022-12-27T00:26:36.967Z,3.20
2022-12-27T00:29:05.559Z,4.97
2022-12-27T00:31:34.885Z,6.13
2022-12-27T00:34:04.512Z,4.97
2022-12-27T00:36:33.219Z,4.88
2022-12-27T00:39:01.670Z,3.72
2022-12-27T00:41:31.464Z,4.72
2022-12-27T00:43:59.779Z,5.00
2022-12-27T00:46:33.741Z,6.00
2022-12-27T00:49:02.024Z,3.85
2022-12-27T00:51:30.313Z,4.45
2022-12-27T00:53:58.632Z,5.47
2022-12-27T00:56:28.570Z,3.47
2022-12-27T00:58:59.126Z,1.83
2022-12-27T01:01:29.188Z,4.05
2022-12-27T01:03:58.254Z,4.10
2022-12-27T01:06:29.674Z,3.53
2022-12-27T01:08:58.143Z,3.90
2022-12-27T01:11:28.569Z,2.67
2022-12-27T01:13:59.142Z,2.60
2022-12-27T01:16:29.684Z,3.20
2022-12-27T01:18:58.033Z,2.97
2022-12-27T01:21:28.026Z,3.05
2022-12-27T01:23:56.547Z,3.05
2022-12-27T01:26:25.327Z,2.35
2022-12-27T01:28:54.401Z,3.28
2022-12-27T01:31:26.270Z,3.28
2022-12-27T01:33:56.395Z,1.60
2022-12-27T01:36:25.571Z,2.65
2022-12-27T01:38:53.951Z,2.60
2022-12-27T01:41:42.434Z,2.25
2022-12-27T01:44:53.486Z,2.33
2022-12-27T01:47:43.157Z,0.60
2022-12-27T01:50:16.549Z,1.58
2022-12-27T01:55:21.170Z,2.88
2022-12-27T01:57:50.436Z,2.28
2022-12-27T02:00:18.967Z,2.67
2022-12-27T02:02:48.884Z,3.42
2022-12-27T02:05:19.171Z,2.10
2022-12-27T02:07:56.172Z,1.25
2022-12-27T02:10:24.469Z,3.15
2022-12-27T02:12:52.780Z,2.50
2022-12-27T02:15:21.259Z,3.30
2022-12-27T02:17:51.208Z,2.85
2022-12-27T02:20:21.636Z,1.58
2022-12-27T02:23:45.899Z,2.75
2022-12-27T02:26:40.612Z,1.35
2022-12-27T02:29:37.382Z,3.20
2022-12-27T02:32:07.784Z,2.13
2022-12-27T02:34:46.870Z,2.33
2022-12-27T02:37:15.593Z,2.28
2022-12-27T02:39:47.162Z,2.60
2022-12-27T02:42:33.925Z,2.47
2022-12-27T02:45:21.330Z,2.17
2022-12-27T02:48:08.087Z,2.42
2022-12-27T02:51:03.719Z,2.72
2022-12-27T02:53:38.180Z,1.52
2022-12-27T02:56:33.620Z,1.48
2022-12-27T02:59:14.340Z,2.75
2022-12-27T03:02:08.129Z,2.15
2022-12-27T03:07:23.226Z,2.80
2022-12-27T03:10:25.258Z,2.05
2022-12-27T03:13:17.057Z,1.90
2022-12-27T03:15:56.885Z,2.53
2022-12-27T03:18:57.257Z,2.80
2022-12-27T03:21:45.308Z,2.55
2022-12-27T03:24:31.183Z,2.22
2022-12-27T03:27:00.006Z,2.00
2022-12-27T03:29:45.999Z,1.98
2022-12-27T03:32:32.827Z,2.10
2022-12-27T03:35:07.746Z,1.25
2022-12-27T03:37:56.303Z,1.95
2022-12-27T03:40:30.955Z,1.88
2022-12-27T03:43:11.876Z,1.08
2022-12-27T03:46:08.805Z,2.10
2022-12-27T03:48:41.797Z,2.22
2022-12-27T03:51:11.774Z,2.15
2022-12-27T03:53:42.207Z,2.75
2022-12-27T03:56:11.075Z,2.10
2022-12-27T03:58:39.313Z,3.58
2022-12-27T04:01:07.672Z,2.83
2022-12-27T04:03:36.147Z,1.75
2022-12-27T04:06:04.401Z,3.13
2022-12-27T04:08:51.547Z,3.00
2022-12-27T04:11:37.119Z,3.15
2022-12-27T04:14:22.643Z,2.58
2022-12-27T04:17:08.235Z,2.00
2022-12-27T04:19:54.089Z,3.63
2022-12-27T04:22:39.647Z,3.25
2022-12-27T04:25:27.301Z,2.08
2022-12-27T04:28:12.844Z,2.28
2022-12-27T04:30:58.213Z,4.13
2022-12-27T04:33:43.827Z,2.88
2022-12-27T04:36:12.190Z,3.63
2022-12-27T04:38:40.450Z,4.05
2022-12-27T04:41:27.417Z,3.65
2022-12-27T04:44:12.872Z,2.63
2022-12-27T04:46:59.479Z,2.28
2022-12-27T04:49:45.475Z,2.72
2022-12-27T04:52:35.539Z,4.10
2022-12-27T04:55:13.824Z,3.90
2022-12-27T04:57:43.617Z,3.30
2022-12-27T05:00:30.833Z,4.65
2022-12-27T05:02:59.510Z,4.22
2022-12-27T05:05:28.004Z,4.10
2022-12-27T05:08:14.388Z,4.15
2022-12-27T05:10:59.875Z,4.15
2022-12-27T05:13:47.001Z,4.53
2022-12-27T05:16:15.446Z,4.38
2022-12-27T05:18:44.939Z,2.50
2022-12-27T05:21:13.196Z,3.58
2022-12-27T05:24:04.937Z,2.30
2022-12-27T05:26:34.277Z,3.33
2022-12-27T05:29:03.968Z,5.03
2022-12-27T05:31:32.503Z,3.67
2022-12-27T05:34:00.876Z,3.15
2022-12-27T05:36:29.344Z,3.22
2022-12-27T05:38:57.755Z,4.50
2022-12-27T05:41:26.015Z,4.18
2022-12-27T05:43:54.233Z,2.53
2022-12-27T05:46:24.107Z,5.93
2022-12-27T05:48:52.423Z,3.55
2022-12-27T05:51:22.217Z,3.88
2022-12-27T05:53:50.923Z,4.65
2022-12-27T05:56:21.142Z,1.75
2022-12-27T05:58:49.561Z,4.85
2022-12-27T06:01:18.895Z,4.43
2022-12-27T06:03:49.791Z,5.38
2022-12-27T06:06:18.022Z,4.28
2022-12-27T06:08:46.223Z,5.38
2022-12-27T06:11:16.146Z,2.75
2022-12-27T06:13:46.068Z,5.03
2022-12-27T06:16:14.418Z,4.35
2022-12-27T06:18:43.584Z,2.35
2022-12-27T06:21:14.980Z,2.17
2022-12-27T06:23:44.836Z,3.40
2022-12-27T06:26:16.049Z,4.28
2022-12-27T06:28:44.404Z,4.95
2022-12-27T06:31:12.968Z,4.82
2022-12-27T06:33:41.253Z,4.20
2022-12-27T06:36:11.020Z,3.83
2022-12-27T06:38:40.772Z,4.68
2022-12-27T06:41:11.665Z,4.28
2022-12-27T06:43:40.311Z,3.95
2022-12-27T06:46:17.049Z,3.70
2022-12-27T06:48:45.800Z,2.50
2022-12-27T06:51:15.986Z,3.60
2022-12-27T06:53:45.665Z,3.90
2022-12-27T06:56:16.790Z,3.38
2022-12-27T06:58:45.515Z,3.88
2022-12-27T07:01:15.489Z,4.25
2022-12-27T07:03:44.053Z,4.90
2022-12-27T07:06:13.082Z,3.50
2022-12-27T07:08:41.451Z,3.15
2022-12-27T07:11:13.227Z,2.83
2022-12-27T07:13:43.788Z,3.47
2022-12-27T07:16:13.879Z,2.70
2022-12-27T07:18:42.568Z,3.65
2022-12-27T07:21:13.123Z,4.07
2022-12-27T07:23:41.906Z,2.42
2022-12-27T07:26:12.935Z,2.90
2022-12-27T07:28:42.487Z,2.30
2022-12-27T07:31:11.450Z,2.45
2022-12-27T07:33:39.992Z,3.67
2022-12-27T07:36:10.588Z,3.55
2022-12-27T07:38:38.927Z,3.63
2022-12-27T07:41:07.511Z,2.33
2022-12-27T07:43:37.259Z,4.10
2022-12-27T07:46:06.595Z,2.92
2022-12-27T07:48:34.845Z,3.70
2022-12-27T07:51:03.280Z,2.03
2022-12-27T07:53:32.206Z,3.28
2022-12-27T07:56:00.611Z,3.15
2022-12-27T07:58:28.820Z,7.85
2022-12-27T08:00:58.992Z,3.10
2022-12-27T08:03:27.242Z,3.42
2022-12-27T08:05:55.617Z,2.70
2022-12-27T08:08:25.692Z,2.83
2022-12-27T08:10:54.183Z,2.92
2022-12-27T08:13:22.537Z,2.42
2022-12-27T08:15:53.832Z,2.28
2022-12-27T08:18:23.568Z,3.78
2022-12-27T08:20:52.321Z,3.30
2022-12-27T08:23:20.600Z,2.72
2022-12-27T08:25:49.314Z,3.10
2022-12-27T08:28:19.137Z,3.03
2022-12-27T08:30:48.334Z,3.13
2022-12-27T08:33:16.985Z,2.60
2022-12-27T08:35:54.969Z,2.50
2022-12-27T08:38:23.758Z,4.10
2022-12-27T08:40:52.046Z,2.88
2022-12-27T08:43:20.720Z,3.50
2022-12-27T08:45:49.104Z,4.05
2022-12-27T08:48:17.392Z,3.60
2022-12-27T08:50:46.991Z,2.95
2022-12-27T08:53:15.235Z,4.35
2022-12-27T08:55:43.462Z,2.72
2022-12-27T08:58:16.384Z,3.20
2022-12-27T09:00:45.095Z,2.80
2022-12-27T09:03:13.452Z,4.80
2022-12-27T09:05:42.348Z,3.20
2022-12-27T09:08:12.669Z,3.20
2022-12-27T09:10:41.019Z,3.40
2022-12-27T09:13:09.175Z,4.10
2022-12-27T09:15:39.078Z,3.20
2022-12-27T09:18:08.202Z,3.47
2022-12-27T09:20:36.445Z,3.08
2022-12-27T09:23:04.870Z,2.65
2022-12-27T09:25:34.529Z,4.22
2022-12-27T09:28:02.765Z,2.92
2022-12-27T09:30:31.066Z,3.45
2022-12-27T09:32:59.881Z,3.88
2022-12-27T09:35:28.061Z,3.58
2022-12-27T09:37:56.545Z,1.48
2022-12-27T09:40:24.877Z,3.10
2022-12-27T09:43:11.823Z,2.90
2022-12-27T09:45:43.353Z,4.20
2022-12-27T09:48:14.935Z,3.92
2022-12-27T09:50:49.501Z,4.30
2022-12-27T09:53:20.273Z,2.80
2022-12-27T09:55:50.229Z,3.40
2022-12-27T09:58:33.884Z,4.90
2022-12-27T10:03:31.626Z,2.75
2022-12-27T10:06:08.926Z,5.35
2022-12-27T10:08:45.046Z,3.72
2022-12-27T10:11:36.297Z,4.43
2022-12-27T10:14:15.812Z,4.22
2022-12-27T10:16:50.220Z,4.90
2022-12-27T10:19:26.605Z,2.22
2022-12-27T10:22:03.247Z,6.53
2022-12-27T10:24:37.166Z,1.75
2022-12-27T10:27:13.094Z,3.58
2022-12-27T10:29:42.854Z,2.40
2022-12-27T10:32:13.987Z,5.85
2022-12-27T10:34:42.239Z,4.25
2022-12-27T10:37:13.300Z,4.40
2022-12-27T10:39:41.867Z,5.53
2022-12-27T10:42:17.029Z,5.97
2022-12-27T10:44:46.724Z,4.10
2022-12-27T10:47:15.078Z,5.47
2022-12-27T10:49:44.709Z,4.95
2022-12-27T10:52:19.945Z,6.30
2022-12-27T10:54:53.398Z,4.47
2022-12-27T11:00:16.712Z,5.90
2022-12-27T11:02:52.065Z,3.90
2022-12-27T11:05:25.343Z,3.45
2022-12-27T11:07:53.705Z,5.97
2022-12-27T11:10:23.701Z,6.18
2022-12-27T11:12:59.425Z,3.95
2022-12-27T11:15:30.605Z,5.38
2022-12-27T11:18:00.324Z,5.63
2022-12-27T11:20:29.747Z,5.38
2022-12-27T11:23:00.515Z,4.97
2022-12-27T11:25:29.697Z,5.40
2022-12-27T11:28:01.418Z,4.80
2022-12-27T11:30:32.814Z,4.28
2022-12-27T11:33:04.783Z,4.30
2022-12-27T11:35:35.719Z,5.47
2022-12-27T11:38:03.955Z,6.07
2022-12-27T11:40:34.956Z,5.10
2022-12-27T11:43:09.420Z,4.45
2022-12-27T11:45:42.265Z,4.82
2022-12-27T11:48:21.059Z,4.65
2022-12-27T11:51:12.482Z,3.50
2022-12-27T11:54:08.351Z,4.22
2022-12-27T11:56:37.086Z,3.92
2022-12-27T11:59:25.522Z,3.55
2022-12-27T12:02:29.309Z,4.82
2022-12-27T12:05:32.343Z,5.13
2022-12-27T12:08:15.663Z,4.60
2022-12-27T12:10:51.798Z,3.60
2022-12-27T12:13:54.315Z,2.80
2022-12-27T12:16:41.151Z,4.75
2022-12-27T12:19:18.589Z,3.85
2022-12-27T12:21:50.572Z,5.07
2022-12-27T12:24:38.392Z,2.60
2022-12-27T12:27:29.097Z,6.82
2022-12-27T12:30:27.422Z,5.63
2022-12-27T12:33:09.611Z,5.22
2022-12-27T12:35:49.391Z,5.63
2022-12-27T12:38:23.217Z,4.88
2022-12-27T12:41:23.629Z,7.38
2022-12-27T12:44:17.161Z,3.92
2022-12-27T12:46:48.558Z,5.50
2022-12-27T12:49:31.736Z,5.40
2022-12-27T12:52:17.179Z,6.10
2022-12-27T12:55:13.261Z,5.40
2022-12-27T12:57:49.704Z,4.85
2022-12-27T13:00:28.759Z,6.65
2022-12-27T13:03:23.597Z,5.68
2022-12-27T13:05:55.064Z,5.63
2022-12-27T13:08:31.101Z,6.97
2022-12-27T13:11:08.548Z,3.80
2022-12-27T13:13:45.857Z,6.90
2022-12-27T13:16:21.758Z,5.35
2022-12-27T13:18:58.470Z,7.88
2022-12-27T13:21:41.635Z,7.22
2022-12-27T13:24:16.272Z,8.70
2022-12-27T13:26:50.735Z,6.15
2022-12-27T13:29:36.369Z,6.13
2022-12-27T13:32:12.907Z,5.60
2022-12-27T13:34:47.458Z,5.63
2022-12-27T13:37:26.612Z,4.30
2022-12-27T13:40:26.912Z,6.55
2022-12-27T13:43:19.071Z,7.47
2022-12-27T13:45:56.788Z,6.03
2022-12-27T13:48:41.274Z,5.80
2022-12-27T13:51:18.124Z,6.75
2022-12-27T13:54:12.026Z,7.75
2022-12-27T13:59:46.226Z,7.47
2022-12-27T14:02:59.711Z,7.32
2022-12-27T14:06:06.460Z,5.60
2022-12-27T14:08:47.059Z,4.57
2022-12-27T14:11:24.811Z,6.70
2022-12-27T14:13:55.161Z,4.68
2022-12-27T14:16:35.576Z,7.85
2022-12-27T14:19:45.363Z,6.22
2022-12-27T14:22:42.941Z,5.40
2022-12-27T14:25:48.113Z,6.80
2022-12-27T14:28:48.519Z,6.10
2022-12-27T14:31:43.764Z,7.15
2022-12-27T14:34:37.061Z,5.40
2022-12-27T14:38:05.065Z,6.20
2022-12-27T14:40:49.189Z,8.02
2022-12-27T14:43:41.114Z,5.93
2022-12-27T14:46:44.806Z,5.03
2022-12-27T14:49:55.900Z,7.90
2022-12-27T14:53:05.963Z,7.32
2022-12-27T14:55:43.715Z,7.05
2022-12-27T14:58:30.992Z,6.95
2022-12-27T15:01:06.407Z,5.45
2022-12-27T15:03:55.499Z,5.63
2022-12-27T15:06:46.937Z,7.47
2022-12-27T15:09:26.371Z,6.43
2022-12-27T15:12:02.482Z,7.30
2022-12-27T15:14:46.210Z,6.22
2022-12-27T15:17:22.737Z,8.18
2022-12-27T15:20:16.686Z,8.18
2022-12-27T15:22:54.991Z,6.53
2022-12-27T15:25:32.120Z,5.30
2022-12-27T15:28:06.628Z,6.00
2022-12-27T15:30:44.275Z,8.20
2022-12-27T15:33:23.072Z,9.52
2022-12-27T15:35:56.723Z,6.82
2022-12-27T15:38:53.882Z,12.20
2022-12-27T15:41:36.389Z,8.43
2022-12-27T15:44:18.621Z,8.48
2022-12-27T15:47:10.915Z,9.38
2022-12-27T15:50:03.394Z,10.40
2022-12-27T15:52:40.657Z,4.82
2022-12-27T15:55:23.340Z,9.40
2022-12-27T15:58:08.587Z,8.43
2022-12-27T16:00:37.676Z,8.40
2022-12-27T16:03:24.453Z,9.35
2022-12-27T16:05:53.519Z,10.80
2022-12-27T16:08:42.570Z,6.25
2022-12-27T16:11:12.927Z,8.13
2022-12-27T16:13:49.061Z,6.40
2022-12-27T16:16:56.826Z,6.80
2022-12-27T16:20:06.943Z,8.57
2022-12-27T16:22:38.287Z,8.07
2022-12-27T16:25:28.686Z,8.65
2022-12-27T16:28:01.847Z,7.63
2022-12-27T16:30:52.408Z,6.40
2022-12-27T16:33:35.099Z,8.57
2022-12-27T16:36:21.173Z,7.13
2022-12-27T16:38:59.111Z,9.63
2022-12-27T16:41:41.102Z,11.15
2022-12-27T16:44:17.275Z,8.85
2022-12-27T16:46:59.592Z,9.60
2022-12-27T16:49:56.695Z,8.27
2022-12-27T16:52:37.595Z,9.68
2022-12-27T16:55:23.173Z,9.77
2022-12-27T16:57:52.401Z,10.43
2022-12-27T17:00:39.197Z,7.05
2022-12-27T17:03:40.749Z,7.30
2022-12-27T17:06:42.263Z,7.30
2022-12-27T17:09:41.738Z,9.55
2022-12-27T17:12:19.109Z,7.50
2022-12-27T17:14:48.037Z,7.57
2022-12-27T17:17:19.093Z,10.38
2022-12-27T17:19:52.382Z,10.50
2022-12-27T17:24:51.315Z,6.60
2022-12-27T17:27:31.824Z,7.93
2022-12-27T17:30:07.494Z,6.78
2022-12-27T17:32:47.149Z,8.30
2022-12-27T17:35:22.149Z,5.80
2022-12-27T17:38:03.693Z,7.18
2022-12-27T17:40:38.555Z,8.32
2022-12-27T17:43:34.038Z,7.35
2022-12-27T17:46:16.879Z,5.57
2022-12-27T17:48:46.623Z,6.22
2022-12-27T17:51:18.941Z,7.82
2022-12-27T17:54:04.945Z,8.60
2022-12-27T17:56:57.524Z,5.93
2022-12-27T17:59:27.559Z,8.85
2022-12-27T18:01:57.878Z,8.88
2022-12-27T18:04:28.133Z,6.68
2022-12-27T18:06:57.475Z,7.15
2022-12-27T18:09:38.207Z,7.40
2022-12-27T18:12:12.092Z,6.03
2022-12-27T18:14:40.456Z,6.38
2022-12-27T18:17:08.716Z,7.03
2022-12-27T18:19:38.216Z,8.23
2022-12-27T18:22:06.685Z,7.43
2022-12-27T18:24:35.277Z,3.88
2022-12-27T18:27:06.240Z,7.30
2022-12-27T18:29:36.028Z,6.28
2022-12-27T18:32:06.186Z,5.15
2022-12-27T18:34:38.393Z,7.18
2022-12-27T18:37:08.535Z,6.88
2022-12-27T18:39:38.521Z,6.32
2022-12-27T18:42:13.597Z,5.22
2022-12-27T18:44:46.979Z,6.35
2022-12-27T18:47:21.171Z,6.88
2022-12-27T18:49:54.086Z,5.72
2022-12-27T18:52:26.452Z,5.72
2022-12-27T18:54:55.624Z,6.10
2022-12-27T18:57:33.320Z,4.88
2022-12-27T19:00:12.499Z,5.53
2022-12-27T19:02:41.266Z,6.20
2022-12-27T19:05:29.503Z,7.85
2022-12-27T19:08:02.472Z,6.07
2022-12-27T19:10:33.719Z,5.30
2022-12-27T19:13:02.524Z,4.40
2022-12-27T19:15:39.484Z,7.05
2022-12-27T19:18:20.870Z,6.18
2022-12-27T19:20:55.452Z,5.10
2022-12-27T19:23:28.319Z,5.70
2022-12-27T19:26:02.281Z,5.00
2022-12-27T19:28:31.712Z,4.88
2022-12-27T19:31:18.374Z,6.45
2022-12-27T19:33:49.740Z,7.57
2022-12-27T19:36:18.247Z,6.07
2022-12-27T19:38:48.189Z,4.30
2022-12-27T19:41:16.609Z,5.70
2022-12-27T19:43:46.657Z,7.03
2022-12-27T19:46:19.209Z,5.53
2022-12-27T19:49:01.141Z,5.85
2022-12-27T19:51:37.362Z,5.40
2022-12-27T19:54:08.914Z,6.45
2022-12-27T19:56:38.786Z,5.28
2022-12-27T19:59:07.027Z,7.80
2022-12-27T20:01:36.823Z,5.25
2022-12-27T20:04:05.194Z,6.75
2022-12-27T20:06:33.471Z,7.97
2022-12-27T20:09:01.923Z,6.65
2022-12-27T20:11:30.264Z,7.22
2022-12-27T20:13:58.504Z,5.95
2022-12-27T20:16:26.903Z,4.90
2022-12-27T20:18:56.769Z,7.72
2022-12-27T20:21:25.067Z,5.90
2022-12-27T20:23:53.373Z,4.32
2022-12-27T20:26:24.009Z,6.00
2022-12-27T20:28:53.561Z,6.65
2022-12-27T20:31:22.859Z,6.65
2022-12-27T20:33:56.618Z,7.28
2022-12-27T20:36:25.188Z,5.95
2022-12-27T20:38:53.347Z,6.72
2022-12-27T20:41:23.166Z,5.72
2022-12-27T20:43:55.942Z,7.35
2022-12-27T20:46:24.869Z,5.45
2022-12-27T20:48:54.323Z,6.50
2022-12-27T20:51:25.416Z,6.00
2022-12-27T20:53:56.432Z,6.40
2022-12-27T20:56:25.161Z,5.43
2022-12-27T20:58:53.746Z,4.78
2022-12-27T21:01:23.603Z,4.28
2022-12-27T21:03:52.025Z,7.10
2022-12-27T21:06:24.268Z,5.43
2022-12-27T21:08:57.136Z,5.78
2022-12-27T21:11:27.968Z,5.30
2022-12-27T21:13:56.808Z,6.15
2022-12-27T21:16:26.767Z,8.38
2022-12-27T21:18:56.023Z,7.53
2022-12-27T21:21:28.612Z,6.15
2022-12-27T21:23:57.698Z,5.63
2022-12-27T21:26:28.100Z,7.43
2022-12-27T21:28:57.281Z,9.07
2022-12-27T21:31:25.948Z,5.70
2022-12-27T21:33:54.243Z,7.85
2022-12-27T21:36:24.611Z,7.43
2022-12-27T21:38:54.764Z,5.75
2022-12-27T21:41:24.515Z,7.75
2022-12-27T21:43:53.269Z,7.10
2022-12-27T21:46:23.460Z,6.72
2022-12-27T21:48:55.880Z,6.75
2022-12-27T21:51:24.590Z,6.27
2022-12-27T21:53:54.430Z,6.15
2022-12-27T21:56:23.111Z,7.03
2022-12-27T21:58:51.810Z,7.95
2022-12-27T22:01:22.465Z,5.55
2022-12-27T22:03:52.294Z,6.20
2022-12-27T22:06:22.507Z,5.20
2022-12-27T22:08:51.713Z,6.18
2022-12-27T22:11:22.657Z,4.63
2022-12-27T22:13:51.041Z,6.00
2022-12-27T22:16:20.878Z,7.70
2022-12-27T22:18:50.164Z,5.60
2022-12-27T22:21:19.884Z,6.95
2022-12-27T22:23:50.318Z,5.57
2022-12-27T22:26:21.446Z,6.47
2022-12-27T22:28:49.958Z,6.75
2022-12-27T22:31:20.582Z,6.57
2022-12-27T22:33:49.309Z,5.28
2022-12-27T22:36:19.086Z,5.03
2022-12-27T22:38:49.672Z,4.93
2022-12-27T22:41:21.768Z,3.08
2022-12-27T22:43:51.912Z,4.80
2022-12-27T22:46:20.579Z,6.88
2022-12-27T22:48:50.860Z,5.05
2022-12-27T22:51:20.646Z,4.72
2022-12-27T22:53:49.326Z,5.00
2022-12-27T22:56:19.075Z,5.82
2022-12-27T22:58:49.012Z,4.72
2022-12-27T23:01:19.167Z,5.28
2022-12-27T23:03:48.031Z,5.30
2022-12-27T23:06:16.783Z,4.18
2022-12-27T23:08:45.659Z,5.20
2022-12-27T23:11:15.054Z,4.00
2022-12-27T23:13:43.535Z,4.60
2022-12-27T23:16:13.276Z,5.20
2022-12-27T23:18:41.651Z,4.97
2022-12-27T23:21:20.708Z,4.68
2022-12-27T23:23:52.602Z,5.63
2022-12-27T23:26:23.193Z,5.28
2022-12-27T23:28:53.015Z,4.55
2022-12-27T23:31:23.997Z,5.32
2022-12-27T23:33:52.908Z,5.10
2022-12-27T23:36:21.847Z,3.92
2022-12-27T23:38:50.629Z,4.95
2022-12-27T23:41:20.302Z,5.30
2022-12-27T23:43:53.743Z,4.75
2022-12-27T23:46:27.688Z,5.78
2022-12-27T23:48:56.493Z,4.80
2022-12-27T23:51:25.025Z,5.10
2022-12-27T23:53:53.341Z,4.10
2022-12-27T23:56:23.855Z,4.20
2022-12-27T23:58:53.842Z,4.45
